createdAt,value
2017-04-28T00:01:14.640Z,1.74
2017-04-28T00:03:45.259Z,2.28
2017-04-28T00:06:16.439Z,2.00
2017-04-28T00:08:48.175Z,2.28
2017-04-28T00:11:19.239Z,3.36
2017-04-28T00:13:50.213Z,2.10
2017-04-28T00:16:21.274Z,1.38
2017-04-28T00:18:51.744Z,2.10
2017-04-28T00:21:22.628Z,1.18
2017-04-28T00:23:53.367Z,2.42
2017-04-28T00:26:24.330Z,5.52
2017-04-28T00:28:55.113Z,2.54
2017-04-28T00:31:26.162Z,3.02
2017-04-28T00:33:57.289Z,1.56
2017-04-28T00:36:28.950Z,3.42
2017-04-28T00:39:00.415Z,2.08
2017-04-28T00:41:31.135Z,1.74
2017-04-28T00:44:01.968Z,2.28
2017-04-28T00:46:32.861Z,6.84
2017-04-28T00:49:03.606Z,4.22
2017-04-28T00:51:35.003Z,4.40
2017-04-28T00:54:05.731Z,6.06
2017-04-28T00:56:36.848Z,3.52
2017-04-28T00:59:07.745Z,5.78
2017-04-28T01:01:39.880Z,1.92
2017-04-28T01:04:10.870Z,2.30
2017-04-28T01:06:41.679Z,2.44
2017-04-28T01:09:12.244Z,4.02
2017-04-28T01:11:42.836Z,6.08
2017-04-28T01:14:13.768Z,3.06
2017-04-28T01:16:44.637Z,3.94
2017-04-28T01:19:15.321Z,3.02
2017-04-28T01:21:46.083Z,4.50
2017-04-28T01:24:17.296Z,4.40
2017-04-28T01:26:48.926Z,6.78
2017-04-28T01:29:20.411Z,3.18
2017-04-28T01:31:51.128Z,3.90
2017-04-28T01:34:21.966Z,4.58
2017-04-28T01:36:52.834Z,5.96
2017-04-28T01:39:25.924Z,3.38
2017-04-28T01:41:56.976Z,2.40
2017-04-28T01:44:28.853Z,5.40
2017-04-28T01:46:59.849Z,2.32
2017-04-28T01:49:30.394Z,2.14
2017-04-28T01:52:01.187Z,3.10
2017-04-28T01:54:32.163Z,2.80
2017-04-28T01:57:03.142Z,4.56
2017-04-28T01:59:34.105Z,5.40
2017-04-28T02:02:05.643Z,3.14
2017-04-28T02:04:36.475Z,5.56
2017-04-28T02:07:06.994Z,6.26
2017-04-28T02:09:37.614Z,5.48
2017-04-28T02:12:08.375Z,4.80
2017-04-28T02:14:39.171Z,7.76
2017-04-28T02:17:10.110Z,5.02
2017-04-28T02:19:41.088Z,2.66
2017-04-28T02:22:12.490Z,4.16
2017-04-28T02:24:43.385Z,4.28
2017-04-28T02:27:14.121Z,4.80
2017-04-28T02:29:44.841Z,4.86
2017-04-28T02:32:15.518Z,4.18
2017-04-28T02:34:46.244Z,7.34
2017-04-28T02:37:17.245Z,4.38
2017-04-28T02:39:48.985Z,5.18
2017-04-28T02:42:20.871Z,6.82
2017-04-28T02:44:51.401Z,8.58
2017-04-28T02:47:22.224Z,7.48
2017-04-28T02:49:52.864Z,9.52
2017-04-28T02:52:23.632Z,8.30
2017-04-28T02:54:54.640Z,9.28
2017-04-28T02:57:26.196Z,10.08
2017-04-28T02:59:56.928Z,8.68
2017-04-28T03:02:27.561Z,5.82
2017-04-28T03:04:58.208Z,5.26
2017-04-28T03:07:29.291Z,7.66
2017-04-28T03:10:00.329Z,8.10
2017-04-28T03:12:30.507Z,5.56
2017-04-28T03:15:02.181Z,12.35
2017-04-28T03:17:32.799Z,20.67
2017-04-28T03:20:03.548Z,13.50
2017-04-28T03:22:34.574Z,12.03
2017-04-28T03:25:05.668Z,17.12
2017-04-28T03:27:36.561Z,16.88
2017-04-28T03:30:13.988Z,22.12
2017-04-28T03:32:44.717Z,22.45
2017-04-28T03:35:15.702Z,13.07
2017-04-28T03:37:46.496Z,9.87
2017-04-28T03:40:18.043Z,5.60
2017-04-28T03:42:48.753Z,6.60
2017-04-28T03:45:19.714Z,4.22
2017-04-28T03:47:50.570Z,8.27
2017-04-28T03:50:21.474Z,6.30
2017-04-28T03:52:52.042Z,8.07
2017-04-28T03:55:22.944Z,5.48
2017-04-28T03:57:53.948Z,10.13
2017-04-28T04:00:24.633Z,9.05
2017-04-28T04:02:55.435Z,6.67
2017-04-28T04:05:26.251Z,6.70
2017-04-28T04:07:57.409Z,8.18
2017-04-28T04:10:28.479Z,9.68
2017-04-28T04:12:59.383Z,7.97
2017-04-28T04:15:30.437Z,5.63
2017-04-28T04:18:01.117Z,7.70
2017-04-28T04:20:31.915Z,7.10
2017-04-28T04:23:02.679Z,9.02
2017-04-28T04:25:33.721Z,9.82
2017-04-28T04:28:04.416Z,5.55
2017-04-28T04:30:35.386Z,8.25
2017-04-28T04:33:06.155Z,6.27
2017-04-28T04:35:37.020Z,7.68
2017-04-28T04:38:07.822Z,7.92
2017-04-28T04:40:40.898Z,5.35
2017-04-28T04:43:12.850Z,9.95
2017-04-28T04:45:43.780Z,11.03
2017-04-28T04:48:14.704Z,7.10
2017-04-28T04:50:45.354Z,6.33
2017-04-28T04:53:16.388Z,9.25
2017-04-28T04:55:47.287Z,5.58
2017-04-28T04:58:18.276Z,14.15
2017-04-28T05:00:49.255Z,10.12
2017-04-28T05:03:20.107Z,6.60
2017-04-28T05:05:50.544Z,5.97
2017-04-28T05:08:21.206Z,9.63
2017-04-28T05:10:51.966Z,7.53
2017-04-28T05:13:22.731Z,13.52
2017-04-28T05:15:53.222Z,9.28
2017-04-28T05:18:24.034Z,6.00
2017-04-28T05:20:54.851Z,5.62
2017-04-28T05:23:26.534Z,7.00
2017-04-28T05:25:57.290Z,6.80
2017-04-28T05:28:28.043Z,10.13
2017-04-28T05:30:59.084Z,10.08
2017-04-28T05:33:29.888Z,13.15
2017-04-28T05:36:00.682Z,5.78
2017-04-28T05:38:31.378Z,10.15
2017-04-28T05:41:02.307Z,13.63
2017-04-28T05:43:33.386Z,9.85
2017-04-28T05:46:04.065Z,8.10
2017-04-28T05:48:34.713Z,17.80
2017-04-28T05:51:05.622Z,13.02
2017-04-28T05:53:36.549Z,5.50
2017-04-28T05:56:07.568Z,8.60
2017-04-28T05:58:38.213Z,10.18
2017-04-28T06:01:09.196Z,8.43
2017-04-28T06:03:40.049Z,7.85
2017-04-28T06:06:10.682Z,7.22
2017-04-28T06:08:41.475Z,7.28
2017-04-28T06:11:12.477Z,8.78
2017-04-28T06:13:43.403Z,11.85
2017-04-28T06:16:14.105Z,11.32
2017-04-28T06:18:45.037Z,9.88
2017-04-28T06:21:16.143Z,14.02
2017-04-28T06:23:46.918Z,15.98
2017-04-28T06:26:17.661Z,14.43
2017-04-28T06:28:48.228Z,13.77
2017-04-28T06:31:19.177Z,12.13
2017-04-28T06:33:49.977Z,15.48
2017-04-28T06:36:20.902Z,15.07
2017-04-28T06:38:51.694Z,13.17
2017-04-28T06:41:23.305Z,12.98
2017-04-28T06:43:53.543Z,11.63
2017-04-28T06:46:24.509Z,12.20
2017-04-28T06:48:55.294Z,11.72
2017-04-28T06:51:26.286Z,10.03
2017-04-28T06:53:57.582Z,9.40
2017-04-28T06:56:28.398Z,9.03
2017-04-28T06:58:59.064Z,12.77
2017-04-28T07:01:29.895Z,7.72
2017-04-28T07:04:00.345Z,12.17
2017-04-28T07:06:31.036Z,8.20
2017-04-28T07:09:01.957Z,9.82
2017-04-28T07:11:32.877Z,9.77
2017-04-28T07:14:04.309Z,20.33
2017-04-28T07:16:36.053Z,11.47
2017-04-28T07:19:06.687Z,17.63
2017-04-28T07:21:44.131Z,12.65
2017-04-28T07:24:14.950Z,12.85
2017-04-28T07:26:45.328Z,12.78
2017-04-28T07:29:15.981Z,12.52
2017-04-28T07:31:47.049Z,9.17
2017-04-28T07:34:17.740Z,9.63
2017-04-28T07:36:48.717Z,14.15
2017-04-28T07:39:19.240Z,9.98
2017-04-28T07:41:51.226Z,9.48
2017-04-28T07:44:21.993Z,18.18
2017-04-28T07:46:52.895Z,10.82
2017-04-28T07:49:23.464Z,12.30
2017-04-28T07:51:54.138Z,8.62
2017-04-28T07:54:24.931Z,14.75
2017-04-28T07:56:55.969Z,14.90
2017-04-28T07:59:26.774Z,12.67
2017-04-28T08:01:57.346Z,12.27
2017-04-28T08:04:28.055Z,12.75
2017-04-28T08:06:59.077Z,9.68
2017-04-28T08:09:29.602Z,13.83
2017-04-28T08:12:00.594Z,12.62
2017-04-28T08:14:31.481Z,12.03
2017-04-28T08:17:02.396Z,13.62
2017-04-28T08:19:33.168Z,7.48
2017-04-28T08:22:03.858Z,8.30
2017-04-28T08:24:34.338Z,12.18
2017-04-28T08:27:05.473Z,12.03
2017-04-28T08:29:36.138Z,13.02
2017-04-28T08:32:07.089Z,8.53
2017-04-28T08:34:37.957Z,18.32
2017-04-28T08:37:08.891Z,9.30
2017-04-28T08:39:39.955Z,8.15
2017-04-28T08:42:12.484Z,7.85
2017-04-28T08:44:43.389Z,6.28
2017-04-28T08:47:13.948Z,11.78
2017-04-28T08:49:44.666Z,11.40
2017-04-28T08:52:15.524Z,9.77
2017-04-28T08:54:46.332Z,9.90
2017-04-28T08:57:17.025Z,8.82
2017-04-28T08:59:47.588Z,7.18
2017-04-28T09:02:18.590Z,5.97
2017-04-28T09:04:49.492Z,11.33
2017-04-28T09:07:20.116Z,13.73
2017-04-28T09:09:50.854Z,14.05
2017-04-28T09:12:21.605Z,8.88
2017-04-28T09:14:52.429Z,12.42
2017-04-28T09:17:23.304Z,15.18
2017-04-28T09:19:55.018Z,11.35
2017-04-28T09:22:25.869Z,13.13
2017-04-28T09:24:56.898Z,16.13
2017-04-28T09:27:27.930Z,12.72
2017-04-28T09:29:58.643Z,8.45
2017-04-28T09:32:29.415Z,7.53
2017-04-28T09:35:00.092Z,11.43
2017-04-28T09:37:30.959Z,11.53
2017-04-28T09:40:02.739Z,8.50
2017-04-28T09:42:35.198Z,7.62
2017-04-28T09:45:06.244Z,10.65
2017-04-28T09:47:36.838Z,11.73
2017-04-28T09:50:07.508Z,11.75
2017-04-28T09:52:38.413Z,14.12
2017-04-28T09:55:09.178Z,10.58
2017-04-28T09:57:40.121Z,11.08
2017-04-28T10:00:10.841Z,8.58
2017-04-28T10:02:41.879Z,13.20
2017-04-28T10:05:12.700Z,12.33
2017-04-28T10:07:43.397Z,8.15
2017-04-28T10:10:14.185Z,10.68
2017-04-28T10:12:44.789Z,11.20
2017-04-28T10:15:16.315Z,6.02
2017-04-28T10:17:47.098Z,11.42
2017-04-28T10:20:17.986Z,12.92
2017-04-28T10:22:48.717Z,8.27
2017-04-28T10:25:19.686Z,9.50
2017-04-28T10:27:50.501Z,13.43
2017-04-28T10:30:20.998Z,8.00
2017-04-28T10:32:51.869Z,7.17
2017-04-28T10:35:22.478Z,9.77
2017-04-28T10:37:53.372Z,7.50
2017-04-28T10:40:24.123Z,10.60
2017-04-28T10:42:55.988Z,10.55
2017-04-28T10:45:26.837Z,8.83
2017-04-28T10:47:57.886Z,13.58
2017-04-28T10:50:28.745Z,8.50
2017-04-28T10:52:59.519Z,13.65
2017-04-28T10:55:30.272Z,7.42
2017-04-28T10:58:00.812Z,9.23
2017-04-28T11:00:31.362Z,10.25
2017-04-28T11:03:02.114Z,9.77
2017-04-28T11:05:32.812Z,8.62
2017-04-28T11:08:03.560Z,7.43
2017-04-28T11:10:34.474Z,9.52
2017-04-28T11:13:05.519Z,10.18
2017-04-28T11:15:36.274Z,8.10
2017-04-28T11:18:07.340Z,7.00
2017-04-28T11:20:37.868Z,8.12
2017-04-28T11:23:08.545Z,9.12
2017-04-28T11:25:39.305Z,9.23
2017-04-28T11:28:10.151Z,12.15
2017-04-28T11:30:41.189Z,12.92
2017-04-28T11:33:12.012Z,11.65
2017-04-28T11:35:42.654Z,8.15
2017-04-28T11:38:13.507Z,10.07
2017-04-28T11:40:44.143Z,6.27
2017-04-28T11:43:16.490Z,10.47
2017-04-28T11:45:47.038Z,6.30
2017-04-28T11:48:17.671Z,11.62
2017-04-28T11:50:48.359Z,5.60
2017-04-28T11:53:18.889Z,9.55
2017-04-28T11:55:50.383Z,9.80
2017-04-28T11:58:21.104Z,7.08
2017-04-28T12:00:51.641Z,12.15
2017-04-28T12:03:22.439Z,9.30
2017-04-28T12:05:53.214Z,9.93
2017-04-28T12:08:24.058Z,17.12
2017-04-28T12:10:54.358Z,16.28
2017-04-28T12:13:25.204Z,7.77
2017-04-28T12:15:56.617Z,7.30
2017-04-28T12:18:27.588Z,11.90
2017-04-28T12:20:58.567Z,14.32
2017-04-28T12:23:30.559Z,12.93
2017-04-28T12:26:01.480Z,6.82
2017-04-28T12:28:32.820Z,12.07
2017-04-28T12:31:03.665Z,7.08
2017-04-28T12:33:34.398Z,6.82
2017-04-28T12:36:05.173Z,9.57
2017-04-28T12:38:36.190Z,11.32
2017-04-28T12:41:07.291Z,8.20
2017-04-28T12:43:39.088Z,11.15
2017-04-28T12:46:10.259Z,11.48
2017-04-28T12:48:41.253Z,10.05
2017-04-28T12:51:12.964Z,8.83
2017-04-28T12:53:44.788Z,8.38
2017-04-28T12:56:15.464Z,5.67
2017-04-28T12:58:46.520Z,11.32
2017-04-28T13:01:16.794Z,10.12
2017-04-28T13:03:47.299Z,10.45
2017-04-28T13:06:18.336Z,10.85
2017-04-28T13:08:48.982Z,12.17
2017-04-28T13:11:19.728Z,10.93
2017-04-28T13:13:50.564Z,16.55
2017-04-28T13:16:22.028Z,12.37
2017-04-28T13:18:52.896Z,11.48
2017-04-28T13:21:23.408Z,10.32
2017-04-28T13:23:54.121Z,12.67
2017-04-28T13:26:25.011Z,13.05
2017-04-28T13:28:55.274Z,16.10
2017-04-28T13:31:26.992Z,7.97
2017-04-28T13:33:57.708Z,17.85
2017-04-28T13:36:28.593Z,10.25
2017-04-28T13:38:59.472Z,8.60
2017-04-28T13:41:30.286Z,11.30
2017-04-28T13:44:02.389Z,12.22
2017-04-28T13:46:33.138Z,9.47
2017-04-28T13:49:03.946Z,10.18
2017-04-28T13:51:34.741Z,7.65
2017-04-28T13:54:05.494Z,11.50
2017-04-28T13:56:36.530Z,9.28
2017-04-28T13:59:07.264Z,9.10
2017-04-28T14:01:38.203Z,12.93
2017-04-28T14:04:08.947Z,8.50
2017-04-28T14:06:39.499Z,14.77
2017-04-28T14:09:10.517Z,10.88
2017-04-28T14:11:41.241Z,9.08
2017-04-28T14:14:12.219Z,8.55
2017-04-28T14:16:43.162Z,7.75
2017-04-28T14:19:14.066Z,9.30
2017-04-28T14:21:44.716Z,9.80
2017-04-28T14:24:15.476Z,10.78
2017-04-28T14:26:46.401Z,8.67
2017-04-28T14:29:16.985Z,6.55
2017-04-28T14:31:47.930Z,8.13
2017-04-28T14:34:18.776Z,8.12
2017-04-28T14:36:49.602Z,11.80
2017-04-28T14:39:20.553Z,12.58
2017-04-28T14:41:51.654Z,9.98
2017-04-28T14:44:23.121Z,8.44
2017-04-28T14:46:54.084Z,8.90
2017-04-28T14:49:25.133Z,8.98
2017-04-28T14:51:55.893Z,6.58
2017-04-28T14:54:26.955Z,5.12
2017-04-28T14:56:57.923Z,9.16
2017-04-28T14:59:28.805Z,7.22
2017-04-28T15:01:59.323Z,10.54
2017-04-28T15:04:30.141Z,7.62
2017-04-28T15:07:00.925Z,6.24
2017-04-28T15:09:31.858Z,8.02
2017-04-28T15:12:02.768Z,9.34
2017-04-28T15:14:33.796Z,7.08
2017-04-28T15:17:04.373Z,6.12
2017-04-28T15:19:35.076Z,6.04
2017-04-28T15:22:06.982Z,11.46
2017-04-28T15:24:37.116Z,8.78
2017-04-28T15:27:08.814Z,7.84
2017-04-28T15:29:39.953Z,9.88
2017-04-28T15:32:11.790Z,7.16
2017-04-28T15:34:43.600Z,6.44
2017-04-28T15:37:14.163Z,4.42
2017-04-28T15:39:45.252Z,6.12
2017-04-28T15:42:16.013Z,7.78
2017-04-28T15:44:47.871Z,6.84
2017-04-28T15:47:18.547Z,8.16
2017-04-28T15:49:49.387Z,6.72
2017-04-28T15:52:20.246Z,5.58
2017-04-28T15:54:51.136Z,6.88
2017-04-28T15:57:22.054Z,8.42
2017-04-28T15:59:52.994Z,6.66
2017-04-28T16:02:23.591Z,10.04
2017-04-28T16:04:54.304Z,6.72
2017-04-28T16:07:24.928Z,7.20
2017-04-28T16:09:55.506Z,8.54
2017-04-28T16:12:26.478Z,5.06
2017-04-28T16:14:57.001Z,8.10
2017-04-28T16:17:27.439Z,7.68
2017-04-28T16:19:59.174Z,6.04
2017-04-28T16:22:29.913Z,4.74
2017-04-28T16:25:00.754Z,8.00
2017-04-28T16:27:31.460Z,5.58
2017-04-28T16:30:02.468Z,4.40
2017-04-28T16:32:33.418Z,4.90
2017-04-28T16:35:04.037Z,8.02
2017-04-28T16:37:34.819Z,5.32
2017-04-28T16:40:05.441Z,8.46
2017-04-28T16:42:36.253Z,4.68
2017-04-28T16:45:07.971Z,6.54
2017-04-28T16:47:38.674Z,8.10
2017-04-28T16:50:09.574Z,10.52
2017-04-28T16:52:40.123Z,5.86
2017-04-28T16:55:11.009Z,8.58
2017-04-28T16:57:41.834Z,7.10
2017-04-28T17:00:12.516Z,7.00
2017-04-28T17:02:43.185Z,6.40
2017-04-28T17:05:13.926Z,4.56
2017-04-28T17:07:44.942Z,5.38
2017-04-28T17:10:15.727Z,4.74
2017-04-28T17:12:46.337Z,4.14
2017-04-28T17:15:17.143Z,5.40
2017-04-28T17:17:48.052Z,4.84
2017-04-28T17:20:18.827Z,4.52
2017-04-28T17:22:49.764Z,8.00
2017-04-28T17:25:20.727Z,8.18
2017-04-28T17:27:51.323Z,8.52
2017-04-28T17:30:22.121Z,6.06
2017-04-28T17:32:53.170Z,5.94
2017-04-28T17:35:24.138Z,5.02
2017-04-28T17:37:55.135Z,4.38
2017-04-28T17:40:26.014Z,3.04
2017-04-28T17:42:56.579Z,8.10
2017-04-28T17:45:28.308Z,5.10
2017-04-28T17:47:58.896Z,6.58
2017-04-28T17:50:29.594Z,3.32
2017-04-28T17:53:00.260Z,5.46
2017-04-28T17:55:31.069Z,7.08
2017-04-28T17:58:01.780Z,7.66
2017-04-28T18:00:32.710Z,2.44
2017-04-28T18:03:04.336Z,6.02
2017-04-28T18:05:35.139Z,4.52
2017-04-28T18:08:06.068Z,6.42
2017-04-28T18:10:36.891Z,2.08
2017-04-28T18:13:07.682Z,3.92
2017-04-28T18:15:38.482Z,2.46
2017-04-28T18:18:09.288Z,2.72
2017-04-28T18:20:40.352Z,3.48
2017-04-28T18:23:10.959Z,4.52
2017-04-28T18:25:41.663Z,2.76
2017-04-28T18:28:13.486Z,5.34
2017-04-28T18:30:44.104Z,3.16
2017-04-28T18:33:14.853Z,5.28
2017-04-28T18:35:45.657Z,2.92
2017-04-28T18:38:16.401Z,3.38
2017-04-28T18:40:47.184Z,2.74
2017-04-28T18:43:17.866Z,2.12
2017-04-28T18:45:49.527Z,2.94
2017-04-28T18:48:20.183Z,3.06
2017-04-28T18:50:51.064Z,3.24
2017-04-28T18:53:21.617Z,2.76
2017-04-28T18:55:52.492Z,4.08
2017-04-28T18:58:23.393Z,2.80
2017-04-28T19:00:53.962Z,2.60
2017-04-28T19:03:24.899Z,1.80
2017-04-28T19:05:55.546Z,3.92
2017-04-28T19:08:26.425Z,2.36
2017-04-28T19:10:57.209Z,4.20
2017-04-28T19:13:28.098Z,5.32
2017-04-28T19:15:59.213Z,1.76
2017-04-28T19:18:29.752Z,4.14
2017-04-28T19:21:00.776Z,4.56
2017-04-28T19:23:31.379Z,2.84
2017-04-28T19:26:02.171Z,1.92
2017-04-28T19:28:33.143Z,3.42
2017-04-28T19:31:03.968Z,1.36
2017-04-28T19:33:34.821Z,3.84
2017-04-28T19:36:05.558Z,2.42
2017-04-28T19:38:36.241Z,3.02
2017-04-28T19:41:07.740Z,3.52
2017-04-28T19:43:38.464Z,3.06
2017-04-28T19:46:10.845Z,3.44
2017-04-28T19:48:41.652Z,4.68
2017-04-28T19:51:12.524Z,1.98
2017-04-28T19:53:43.363Z,2.52
2017-04-28T19:56:14.226Z,2.36
2017-04-28T19:58:45.022Z,2.76
2017-04-28T20:01:16.747Z,2.98
2017-04-28T20:03:47.479Z,2.22
2017-04-28T20:06:18.355Z,3.02
2017-04-28T20:08:49.037Z,1.40
2017-04-28T20:11:19.935Z,1.50
2017-04-28T20:13:50.702Z,2.88
2017-04-28T20:16:22.446Z,2.00
2017-04-28T20:18:53.105Z,2.50
2017-04-28T20:21:24.076Z,3.64
2017-04-28T20:23:55.123Z,1.60
2017-04-28T20:26:25.941Z,2.24
2017-04-28T20:28:56.485Z,3.00
2017-04-28T20:31:27.404Z,3.78
2017-04-28T20:33:58.032Z,4.08
2017-04-28T20:36:29.629Z,2.92
2017-04-28T20:39:00.338Z,2.48
2017-04-28T20:41:31.044Z,1.96
2017-04-28T20:44:01.933Z,5.70
2017-04-28T20:46:33.766Z,2.52
2017-04-28T20:49:04.369Z,2.02
2017-04-28T20:51:35.437Z,2.58
2017-04-28T20:54:06.153Z,2.40
2017-04-28T20:56:36.865Z,4.22
2017-04-28T20:59:07.664Z,3.78
2017-04-28T21:01:38.727Z,4.96
2017-04-28T21:04:09.686Z,2.92
2017-04-28T21:06:40.762Z,3.88
2017-04-28T21:09:11.370Z,3.34
2017-04-28T21:11:42.503Z,1.82
2017-04-28T21:14:13.193Z,2.02
2017-04-28T21:16:44.102Z,1.80
2017-04-28T21:19:14.978Z,2.62
2017-04-28T21:21:45.596Z,2.12
2017-04-28T21:24:16.610Z,4.26
2017-04-28T21:26:47.461Z,3.26
2017-04-28T21:29:17.989Z,1.98
2017-04-28T21:31:48.730Z,6.20
2017-04-28T21:34:19.367Z,3.84
2017-04-28T21:36:50.040Z,4.18
2017-04-28T21:39:20.935Z,2.08
2017-04-28T21:41:51.597Z,2.54
2017-04-28T21:44:22.236Z,2.42
2017-04-28T21:46:54.136Z,2.54
2017-04-28T21:49:25.620Z,2.22
2017-04-28T21:51:56.328Z,2.12
2017-04-28T21:54:27.074Z,6.70
2017-04-28T21:56:57.744Z,2.52
2017-04-28T21:59:28.401Z,4.84
2017-04-28T22:01:59.309Z,2.54
2017-04-28T22:04:30.166Z,4.72
2017-04-28T22:07:01.091Z,2.56
2017-04-28T22:09:32.173Z,4.20
2017-04-28T22:12:03.015Z,2.30
2017-04-28T22:14:34.137Z,1.54
2017-04-28T22:17:11.072Z,1.60
2017-04-28T22:19:41.956Z,2.50
2017-04-28T22:22:12.635Z,1.86
2017-04-28T22:24:43.509Z,4.40
2017-04-28T22:27:14.523Z,2.70
2017-04-28T22:29:45.867Z,1.44
2017-04-28T22:32:16.978Z,2.70
2017-04-28T22:34:47.856Z,4.56
2017-04-28T22:37:18.823Z,2.10
2017-04-28T22:39:49.249Z,5.30
2017-04-28T22:42:20.184Z,2.78
2017-04-28T22:44:51.641Z,2.62
2017-04-28T22:47:23.212Z,2.60
2017-04-28T22:49:53.943Z,1.84
2017-04-28T22:52:24.919Z,1.88
2017-04-28T22:54:55.650Z,3.12
2017-04-28T22:57:26.201Z,3.82
2017-04-28T22:59:56.752Z,5.50
2017-04-28T23:02:27.567Z,2.48
2017-04-28T23:04:59.403Z,2.98
2017-04-28T23:07:30.373Z,1.36
2017-04-28T23:10:00.850Z,3.56
2017-04-28T23:12:31.577Z,2.50
2017-04-28T23:15:02.602Z,4.54
2017-04-28T23:17:33.305Z,1.62
2017-04-28T23:20:03.931Z,2.50
2017-04-28T23:22:34.830Z,7.08
2017-04-28T23:25:05.674Z,2.44
2017-04-28T23:27:36.386Z,3.16
2017-04-28T23:30:07.166Z,1.86
2017-04-28T23:32:37.843Z,1.26
2017-04-28T23:35:08.576Z,4.56
2017-04-28T23:37:39.477Z,1.16
2017-04-28T23:40:10.196Z,1.94
2017-04-28T23:42:41.317Z,1.06
2017-04-28T23:45:12.645Z,1.38
2017-04-28T23:47:44.910Z,1.30
2017-04-28T23:50:15.657Z,5.16
2017-04-28T23:52:46.708Z,1.32
2017-04-28T23:55:17.512Z,1.74
2017-04-28T23:57:48.447Z,2.76
